sensor_id;sensor_type;location;lat;lon;timestamp;temperature;humidity
2042;DHT22;1026;51.460;7.252;2023-05-24T00:02:07;15.30;83.20
2042;DHT22;1026;51.460;7.252;2023-05-24T00:04:33;15.30;83.10
2042;DHT22;1026;51.460;7.252;2023-05-24T00:07:00;15.20;82.90
2042;DHT22;1026;51.460;7.252;2023-05-24T00:09:29;15.20;83.10
2042;DHT22;1026;51.460;7.252;2023-05-24T00:11:55;15.30;83.20
2042;DHT22;1026;51.460;7.252;2023-05-24T00:14:21;15.30;83.10
2042;DHT22;1026;51.460;7.252;2023-05-24T00:16:47;15.20;83.00
2042;DHT22;1026;51.460;7.252;2023-05-24T00:19:13;15.20;83.00
2042;DHT22;1026;51.460;7.252;2023-05-24T00:21:44;15.10;83.00
2042;DHT22;1026;51.460;7.252;2023-05-24T00:24:10;15.10;82.90
2042;DHT22;1026;51.460;7.252;2023-05-24T00:26:36;15.10;82.90
2042;DHT22;1026;51.460;7.252;2023-05-24T00:29:02;15.00;82.80
2042;DHT22;1026;51.460;7.252;2023-05-24T00:31:28;15.10;83.00
2042;DHT22;1026;51.460;7.252;2023-05-24T00:33:53;15.10;83.00
2042;DHT22;1026;51.460;7.252;2023-05-24T00:36:19;15.10;82.90
2042;DHT22;1026;51.460;7.252;2023-05-24T00:38:45;15.10;83.00
2042;DHT22;1026;51.460;7.252;2023-05-24T00:41:11;15.00;82.90
2042;DHT22;1026;51.460;7.252;2023-05-24T00:43:36;15.10;83.10
2042;DHT22;1026;51.460;7.252;2023-05-24T00:48:44;15.10;83.10
2042;DHT22;1026;51.460;7.252;2023-05-24T00:51:11;14.90;83.00
2042;DHT22;1026;51.460;7.252;2023-05-24T00:53:37;15.00;83.10
2042;DHT22;1026;51.460;7.252;2023-05-24T00:56:04;15.00;83.20
2042;DHT22;1026;51.460;7.252;2023-05-24T00:58:31;14.90;83.00
2042;DHT22;1026;51.460;7.252;2023-05-24T01:00:59;14.90;83.10
2042;DHT22;1026;51.460;7.252;2023-05-24T01:03:26;14.90;83.00
2042;DHT22;1026;51.460;7.252;2023-05-24T01:05:57;14.90;83.00
2042;DHT22;1026;51.460;7.252;2023-05-24T01:08:44;14.90;83.10
2042;DHT22;1026;51.460;7.252;2023-05-24T01:14:05;14.90;83.10
2042;DHT22;1026;51.460;7.252;2023-05-24T01:19:07;14.70;83.00
2042;DHT22;1026;51.460;7.252;2023-05-24T01:21:52;14.80;83.10
2042;DHT22;1026;51.460;7.252;2023-05-24T01:24:36;14.80;83.10
2042;DHT22;1026;51.460;7.252;2023-05-24T01:27:10;14.70;83.00
2042;DHT22;1026;51.460;7.252;2023-05-24T01:29:37;14.80;83.30
2042;DHT22;1026;51.460;7.252;2023-05-24T01:32:04;14.80;83.20
2042;DHT22;1026;51.460;7.252;2023-05-24T01:34:30;14.70;83.10
2042;DHT22;1026;51.460;7.252;2023-05-24T01:36:55;14.70;83.10
2042;DHT22;1026;51.460;7.252;2023-05-24T01:39:24;14.70;83.10
2042;DHT22;1026;51.460;7.252;2023-05-24T01:42:08;14.70;83.00
2042;DHT22;1026;51.460;7.252;2023-05-24T01:44:42;14.70;83.10
2042;DHT22;1026;51.460;7.252;2023-05-24T01:47:33;14.60;83.10
2042;DHT22;1026;51.460;7.252;2023-05-24T01:50:11;14.60;83.10
2042;DHT22;1026;51.460;7.252;2023-05-24T01:52:43;14.60;83.10
2042;DHT22;1026;51.460;7.252;2023-05-24T01:55:14;14.60;83.10
2042;DHT22;1026;51.460;7.252;2023-05-24T01:57:43;14.50;83.00
2042;DHT22;1026;51.460;7.252;2023-05-24T02:00:13;14.60;83.10
2042;DHT22;1026;51.460;7.252;2023-05-24T02:02:40;14.60;83.10
2042;DHT22;1026;51.460;7.252;2023-05-24T02:05:06;14.60;83.10
2042;DHT22;1026;51.460;7.252;2023-05-24T02:07:38;14.50;82.90
2042;DHT22;1026;51.460;7.252;2023-05-24T02:10:06;14.40;82.90
2042;DHT22;1026;51.460;7.252;2023-05-24T02:12:31;14.50;83.10
2042;DHT22;1026;51.460;7.252;2023-05-24T02:14:57;14.50;83.10
2042;DHT22;1026;51.460;7.252;2023-05-24T02:17:23;14.40;83.00
2042;DHT22;1026;51.460;7.252;2023-05-24T02:19:51;14.50;83.10
2042;DHT22;1026;51.460;7.252;2023-05-24T02:22:18;14.40;83.00
2042;DHT22;1026;51.460;7.252;2023-05-24T02:24:47;14.40;83.00
2042;DHT22;1026;51.460;7.252;2023-05-24T02:27:12;14.30;82.90
2042;DHT22;1026;51.460;7.252;2023-05-24T02:29:38;14.40;83.00
2042;DHT22;1026;51.460;7.252;2023-05-24T02:32:12;14.40;83.00
2042;DHT22;1026;51.460;7.252;2023-05-24T02:34:38;14.40;83.00
2042;DHT22;1026;51.460;7.252;2023-05-24T02:37:04;14.40;83.10
2042;DHT22;1026;51.460;7.252;2023-05-24T02:39:30;14.30;83.70
2042;DHT22;1026;51.460;7.252;2023-05-24T02:41:56;14.30;83.10
2042;DHT22;1026;51.460;7.252;2023-05-24T02:44:21;14.20;82.90
2042;DHT22;1026;51.460;7.252;2023-05-24T02:46:47;14.30;82.90
2042;DHT22;1026;51.460;7.252;2023-05-24T02:49:13;14.10;82.80
2042;DHT22;1026;51.460;7.252;2023-05-24T02:51:38;14.30;83.10
2042;DHT22;1026;51.460;7.252;2023-05-24T02:54:04;14.20;83.00
2042;DHT22;1026;51.460;7.252;2023-05-24T02:56:30;14.20;83.00
2042;DHT22;1026;51.460;7.252;2023-05-24T02:58:56;14.20;83.00
2042;DHT22;1026;51.460;7.252;2023-05-24T03:01:21;14.20;82.90
2042;DHT22;1026;51.460;7.252;2023-05-24T03:03:47;14.20;83.00
2042;DHT22;1026;51.460;7.252;2023-05-24T03:06:13;14.20;82.90
2042;DHT22;1026;51.460;7.252;2023-05-24T03:08:40;14.20;82.90
2042;DHT22;1026;51.460;7.252;2023-05-24T03:11:06;14.30;83.10
2042;DHT22;1026;51.460;7.252;2023-05-24T03:13:32;14.20;82.90
2042;DHT22;1026;51.460;7.252;2023-05-24T03:15:57;14.10;82.80
2042;DHT22;1026;51.460;7.252;2023-05-24T03:18:23;14.10;82.80
2042;DHT22;1026;51.460;7.252;2023-05-24T03:20:49;14.10;82.80
2042;DHT22;1026;51.460;7.252;2023-05-24T03:23:15;14.00;82.70
2042;DHT22;1026;51.460;7.252;2023-05-24T03:25:41;14.00;82.80
2042;DHT22;1026;51.460;7.252;2023-05-24T03:28:06;14.00;82.80
2042;DHT22;1026;51.460;7.252;2023-05-24T03:30:32;14.00;82.80
2042;DHT22;1026;51.460;7.252;2023-05-24T03:32:58;14.00;82.70
2042;DHT22;1026;51.460;7.252;2023-05-24T03:35:24;14.00;82.80
2042;DHT22;1026;51.460;7.252;2023-05-24T03:37:50;14.00;82.80
2042;DHT22;1026;51.460;7.252;2023-05-24T03:40:16;14.00;82.80
2042;DHT22;1026;51.460;7.252;2023-05-24T03:42:41;14.00;82.80
2042;DHT22;1026;51.460;7.252;2023-05-24T03:45:08;14.00;82.70
2042;DHT22;1026;51.460;7.252;2023-05-24T03:47:33;14.00;82.80
2042;DHT22;1026;51.460;7.252;2023-05-24T03:49:59;14.00;82.70
2042;DHT22;1026;51.460;7.252;2023-05-24T03:52:25;14.00;83.00
2042;DHT22;1026;51.460;7.252;2023-05-24T03:54:50;13.90;82.80
2042;DHT22;1026;51.460;7.252;2023-05-24T03:57:17;13.90;82.70
2042;DHT22;1026;51.460;7.252;2023-05-24T03:59:56;13.80;82.60
2042;DHT22;1026;51.460;7.252;2023-05-24T04:02:22;13.90;82.80
2042;DHT22;1026;51.460;7.252;2023-05-24T04:04:48;13.90;82.80
2042;DHT22;1026;51.460;7.252;2023-05-24T04:07:13;13.80;82.60
2042;DHT22;1026;51.460;7.252;2023-05-24T04:09:41;13.80;82.70
2042;DHT22;1026;51.460;7.252;2023-05-24T04:12:06;13.80;82.60
2042;DHT22;1026;51.460;7.252;2023-05-24T04:14:32;13.90;82.70
2042;DHT22;1026;51.460;7.252;2023-05-24T04:16:58;13.90;82.60
2042;DHT22;1026;51.460;7.252;2023-05-24T04:19:23;13.90;82.70
2042;DHT22;1026;51.460;7.252;2023-05-24T04:21:49;13.80;82.70
2042;DHT22;1026;51.460;7.252;2023-05-24T04:24:15;13.70;82.60
2042;DHT22;1026;51.460;7.252;2023-05-24T04:26:40;13.80;82.70
2042;DHT22;1026;51.460;7.252;2023-05-24T04:29:06;13.80;82.70
2042;DHT22;1026;51.460;7.252;2023-05-24T04:31:33;13.70;82.60
2042;DHT22;1026;51.460;7.252;2023-05-24T04:33:59;13.80;82.60
2042;DHT22;1026;51.460;7.252;2023-05-24T04:36:25;13.70;82.50
2042;DHT22;1026;51.460;7.252;2023-05-24T04:38:50;13.80;82.60
2042;DHT22;1026;51.460;7.252;2023-05-24T04:41:18;13.70;82.50
2042;DHT22;1026;51.460;7.252;2023-05-24T04:43:44;13.70;82.50
2042;DHT22;1026;51.460;7.252;2023-05-24T04:46:11;13.80;82.60
2042;DHT22;1026;51.460;7.252;2023-05-24T04:48:37;13.70;82.50
2042;DHT22;1026;51.460;7.252;2023-05-24T04:51:03;13.70;82.60
2042;DHT22;1026;51.460;7.252;2023-05-24T04:53:28;13.70;82.60
2042;DHT22;1026;51.460;7.252;2023-05-24T04:55:54;13.70;82.60
2042;DHT22;1026;51.460;7.252;2023-05-24T04:58:20;13.80;82.70
2042;DHT22;1026;51.460;7.252;2023-05-24T05:00:46;13.70;82.60
2042;DHT22;1026;51.460;7.252;2023-05-24T05:03:12;13.70;82.60
2042;DHT22;1026;51.460;7.252;2023-05-24T05:05:37;13.70;82.60
2042;DHT22;1026;51.460;7.252;2023-05-24T05:08:03;13.70;82.60
2042;DHT22;1026;51.460;7.252;2023-05-24T05:10:29;13.70;82.60
2042;DHT22;1026;51.460;7.252;2023-05-24T05:12:55;13.70;82.70
2042;DHT22;1026;51.460;7.252;2023-05-24T05:15:22;13.70;82.70
2042;DHT22;1026;51.460;7.252;2023-05-24T05:17:48;13.70;82.70
2042;DHT22;1026;51.460;7.252;2023-05-24T05:20:14;13.60;82.60
2042;DHT22;1026;51.460;7.252;2023-05-24T05:22:45;13.60;82.50
2042;DHT22;1026;51.460;7.252;2023-05-24T05:25:11;13.60;82.70
2042;DHT22;1026;51.460;7.252;2023-05-24T05:27:37;13.70;82.60
2042;DHT22;1026;51.460;7.252;2023-05-24T05:30:02;13.60;82.60
2042;DHT22;1026;51.460;7.252;2023-05-24T05:32:28;13.70;82.70
2042;DHT22;1026;51.460;7.252;2023-05-24T05:34:54;13.70;82.70
2042;DHT22;1026;51.460;7.252;2023-05-24T05:37:20;13.70;82.70
2042;DHT22;1026;51.460;7.252;2023-05-24T05:39:45;13.70;82.70
2042;DHT22;1026;51.460;7.252;2023-05-24T05:42:11;13.70;82.70
2042;DHT22;1026;51.460;7.252;2023-05-24T05:44:36;13.60;82.60
2042;DHT22;1026;51.460;7.252;2023-05-24T05:47:02;13.60;82.70
2042;DHT22;1026;51.460;7.252;2023-05-24T05:49:30;13.60;82.70
2042;DHT22;1026;51.460;7.252;2023-05-24T05:51:56;13.70;82.80
2042;DHT22;1026;51.460;7.252;2023-05-24T05:54:21;13.60;82.70
2042;DHT22;1026;51.460;7.252;2023-05-24T05:56:47;13.70;82.80
2042;DHT22;1026;51.460;7.252;2023-05-24T05:59:14;13.60;82.70
2042;DHT22;1026;51.460;7.252;2023-05-24T06:01:41;13.70;82.70
2042;DHT22;1026;51.460;7.252;2023-05-24T06:04:07;13.70;82.80
2042;DHT22;1026;51.460;7.252;2023-05-24T06:06:33;13.60;82.70
2042;DHT22;1026;51.460;7.252;2023-05-24T06:08:59;13.70;82.70
2042;DHT22;1026;51.460;7.252;2023-05-24T06:11:25;13.70;82.70
2042;DHT22;1026;51.460;7.252;2023-05-24T06:13:52;13.60;82.60
2042;DHT22;1026;51.460;7.252;2023-05-24T06:16:17;13.70;82.60
2042;DHT22;1026;51.460;7.252;2023-05-24T06:18:44;13.70;82.60
2042;DHT22;1026;51.460;7.252;2023-05-24T06:21:10;13.60;82.60
2042;DHT22;1026;51.460;7.252;2023-05-24T06:23:36;13.70;82.70
2042;DHT22;1026;51.460;7.252;2023-05-24T06:26:02;13.70;82.70
2042;DHT22;1026;51.460;7.252;2023-05-24T06:28:28;13.60;82.50
2042;DHT22;1026;51.460;7.252;2023-05-24T06:30:54;13.60;82.60
2042;DHT22;1026;51.460;7.252;2023-05-24T06:33:20;13.70;82.70
2042;DHT22;1026;51.460;7.252;2023-05-24T06:35:47;13.80;82.70
2042;DHT22;1026;51.460;7.252;2023-05-24T06:38:12;13.80;82.60
2042;DHT22;1026;51.460;7.252;2023-05-24T06:40:38;13.80;82.70
2042;DHT22;1026;51.460;7.252;2023-05-24T06:43:04;13.70;82.60
2042;DHT22;1026;51.460;7.252;2023-05-24T06:45:30;13.70;82.60
2042;DHT22;1026;51.460;7.252;2023-05-24T06:47:56;13.70;82.50
2042;DHT22;1026;51.460;7.252;2023-05-24T06:50:22;13.80;82.60
2042;DHT22;1026;51.460;7.252;2023-05-24T06:52:48;13.80;82.60
2042;DHT22;1026;51.460;7.252;2023-05-24T06:55:14;13.80;82.50
2042;DHT22;1026;51.460;7.252;2023-05-24T06:57:40;13.70;82.40
2042;DHT22;1026;51.460;7.252;2023-05-24T07:00:06;13.80;82.60
2042;DHT22;1026;51.460;7.252;2023-05-24T07:02:34;13.80;82.60
2042;DHT22;1026;51.460;7.252;2023-05-24T07:05:00;13.70;82.40
2042;DHT22;1026;51.460;7.252;2023-05-24T07:07:25;13.70;82.30
2042;DHT22;1026;51.460;7.252;2023-05-24T07:09:51;13.80;82.50
2042;DHT22;1026;51.460;7.252;2023-05-24T07:12:17;13.80;82.40
2042;DHT22;1026;51.460;7.252;2023-05-24T07:14:42;13.80;82.40
2042;DHT22;1026;51.460;7.252;2023-05-24T07:17:08;13.80;82.30
2042;DHT22;1026;51.460;7.252;2023-05-24T07:19:34;13.90;82.40
2042;DHT22;1026;51.460;7.252;2023-05-24T07:22:00;13.80;82.40
2042;DHT22;1026;51.460;7.252;2023-05-24T07:24:32;13.80;82.20
2042;DHT22;1026;51.460;7.252;2023-05-24T07:27:02;13.90;82.40
2042;DHT22;1026;51.460;7.252;2023-05-24T07:29:29;13.80;82.30
2042;DHT22;1026;51.460;7.252;2023-05-24T07:31:55;13.90;82.30
2042;DHT22;1026;51.460;7.252;2023-05-24T07:34:21;13.90;82.30
2042;DHT22;1026;51.460;7.252;2023-05-24T07:36:48;13.90;82.30
2042;DHT22;1026;51.460;7.252;2023-05-24T07:39:14;14.00;82.20
2042;DHT22;1026;51.460;7.252;2023-05-24T07:41:40;14.00;82.20
2042;DHT22;1026;51.460;7.252;2023-05-24T07:44:06;13.90;82.00
2042;DHT22;1026;51.460;7.252;2023-05-24T07:46:33;14.10;82.20
2042;DHT22;1026;51.460;7.252;2023-05-24T07:48:59;14.10;82.10
2042;DHT22;1026;51.460;7.252;2023-05-24T07:51:25;14.00;79.50
2042;DHT22;1026;51.460;7.252;2023-05-24T07:53:51;13.60;76.70
2042;DHT22;1026;51.460;7.252;2023-05-24T07:56:17;13.50;77.70
2042;DHT22;1026;51.460;7.252;2023-05-24T07:58:42;13.30;76.00
2042;DHT22;1026;51.460;7.252;2023-05-24T08:01:11;13.30;76.80
2042;DHT22;1026;51.460;7.252;2023-05-24T08:03:37;13.20;75.70
2042;DHT22;1026;51.460;7.252;2023-05-24T08:06:04;13.20;76.00
2042;DHT22;1026;51.460;7.252;2023-05-24T08:08:30;13.20;76.40
2042;DHT22;1026;51.460;7.252;2023-05-24T08:10:55;13.20;76.60
2042;DHT22;1026;51.460;7.252;2023-05-24T08:13:21;13.00;76.70
2042;DHT22;1026;51.460;7.252;2023-05-24T08:15:47;13.00;76.40
2042;DHT22;1026;51.460;7.252;2023-05-24T08:18:13;13.00;76.60
2042;DHT22;1026;51.460;7.252;2023-05-24T08:20:39;13.10;78.00
2042;DHT22;1026;51.460;7.252;2023-05-24T08:23:05;13.10;77.40
2042;DHT22;1026;51.460;7.252;2023-05-24T08:25:31;13.20;77.60
2042;DHT22;1026;51.460;7.252;2023-05-24T08:27:57;13.30;77.70
2042;DHT22;1026;51.460;7.252;2023-05-24T08:30:23;13.50;77.90
2042;DHT22;1026;51.460;7.252;2023-05-24T08:32:49;13.60;77.80
2042;DHT22;1026;51.460;7.252;2023-05-24T08:35:15;13.70;77.70
2042;DHT22;1026;51.460;7.252;2023-05-24T08:37:41;13.80;77.80
2042;DHT22;1026;51.460;7.252;2023-05-24T08:40:07;13.80;77.80
2042;DHT22;1026;51.460;7.252;2023-05-24T08:42:37;13.80;77.90
2042;DHT22;1026;51.460;7.252;2023-05-24T08:45:10;13.90;77.90
2042;DHT22;1026;51.460;7.252;2023-05-24T08:47:37;13.90;77.90
2042;DHT22;1026;51.460;7.252;2023-05-24T08:50:04;13.90;78.00
2042;DHT22;1026;51.460;7.252;2023-05-24T08:52:31;14.00;78.20
2042;DHT22;1026;51.460;7.252;2023-05-24T08:54:58;13.90;78.20
2042;DHT22;1026;51.460;7.252;2023-05-24T08:57:27;14.00;78.20
2042;DHT22;1026;51.460;7.252;2023-05-24T08:59:55;14.10;78.10
2042;DHT22;1026;51.460;7.252;2023-05-24T09:02:22;14.10;78.30
2042;DHT22;1026;51.460;7.252;2023-05-24T09:04:49;14.00;78.20
2042;DHT22;1026;51.460;7.252;2023-05-24T09:07:19;14.20;78.40
2042;DHT22;1026;51.460;7.252;2023-05-24T09:09:52;14.20;78.40
2042;DHT22;1026;51.460;7.252;2023-05-24T09:12:19;14.20;78.40
2042;DHT22;1026;51.460;7.252;2023-05-24T09:14:47;14.10;78.30
2042;DHT22;1026;51.460;7.252;2023-05-24T09:17:13;14.20;76.00
2042;DHT22;1026;51.460;7.252;2023-05-24T09:19:44;14.00;74.20
2042;DHT22;1026;51.460;7.252;2023-05-24T09:22:14;13.90;75.50
2042;DHT22;1026;51.460;7.252;2023-05-24T09:24:42;13.90;76.30
2042;DHT22;1026;51.460;7.252;2023-05-24T09:27:08;14.10;76.50
2042;DHT22;1026;51.460;7.252;2023-05-24T09:29:35;14.20;76.40
2042;DHT22;1026;51.460;7.252;2023-05-24T09:32:02;14.20;76.50
2042;DHT22;1026;51.460;7.252;2023-05-24T09:34:36;14.20;76.60
2042;DHT22;1026;51.460;7.252;2023-05-24T09:37:03;14.20;76.70
2042;DHT22;1026;51.460;7.252;2023-05-24T09:39:28;14.30;76.90
2042;DHT22;1026;51.460;7.252;2023-05-24T09:41:54;14.30;77.10
2042;DHT22;1026;51.460;7.252;2023-05-24T09:44:24;14.40;77.30
2042;DHT22;1026;51.460;7.252;2023-05-24T09:46:53;14.40;77.30
2042;DHT22;1026;51.460;7.252;2023-05-24T09:49:20;14.40;77.50
2042;DHT22;1026;51.460;7.252;2023-05-24T09:51:46;14.30;77.40
2042;DHT22;1026;51.460;7.252;2023-05-24T09:54:12;14.50;77.70
2042;DHT22;1026;51.460;7.252;2023-05-24T09:56:38;14.50;77.70
2042;DHT22;1026;51.460;7.252;2023-05-24T09:59:08;14.50;77.80
2042;DHT22;1026;51.460;7.252;2023-05-24T10:01:34;14.50;77.80
2042;DHT22;1026;51.460;7.252;2023-05-24T10:04:00;14.50;77.70
2042;DHT22;1026;51.460;7.252;2023-05-24T10:06:27;14.50;77.70
2042;DHT22;1026;51.460;7.252;2023-05-24T10:08:54;14.60;77.80
2042;DHT22;1026;51.460;7.252;2023-05-24T10:11:21;14.60;77.80
2042;DHT22;1026;51.460;7.252;2023-05-24T10:13:48;14.60;77.80
2042;DHT22;1026;51.460;7.252;2023-05-24T10:16:14;14.50;77.80
2042;DHT22;1026;51.460;7.252;2023-05-24T10:18:40;14.50;75.00
2042;DHT22;1026;51.460;7.252;2023-05-24T10:21:06;14.40;74.90
2042;DHT22;1026;51.460;7.252;2023-05-24T10:23:36;14.40;75.40
2042;DHT22;1026;51.460;7.252;2023-05-24T10:26:07;14.50;75.60
2042;DHT22;1026;51.460;7.252;2023-05-24T10:28:38;14.50;75.60
2042;DHT22;1026;51.460;7.252;2023-05-24T10:31:16;14.60;75.80
2042;DHT22;1026;51.460;7.252;2023-05-24T10:33:44;14.60;75.80
2042;DHT22;1026;51.460;7.252;2023-05-24T10:36:13;14.60;75.90
2042;DHT22;1026;51.460;7.252;2023-05-24T10:38:40;14.60;73.70
2042;DHT22;1026;51.460;7.252;2023-05-24T10:41:07;14.60;75.70
2042;DHT22;1026;51.460;7.252;2023-05-24T10:43:34;14.60;75.70
2042;DHT22;1026;51.460;7.252;2023-05-24T10:46:02;14.70;75.70
2042;DHT22;1026;51.460;7.252;2023-05-24T10:50:54;14.70;76.00
2042;DHT22;1026;51.460;7.252;2023-05-24T10:53:23;14.70;76.00
2042;DHT22;1026;51.460;7.252;2023-05-24T12:21:15;15.00;75.80
2042;DHT22;1026;51.460;7.252;2023-05-24T12:23:40;15.00;75.90
2042;DHT22;1026;51.460;7.252;2023-05-24T12:26:06;15.00;75.90
2042;DHT22;1026;51.460;7.252;2023-05-24T12:28:33;15.00;75.80
2042;DHT22;1026;51.460;7.252;2023-05-24T12:31:02;15.10;76.20
2042;DHT22;1026;51.460;7.252;2023-05-24T12:33:27;15.10;76.30
2042;DHT22;1026;51.460;7.252;2023-05-24T12:35:53;15.10;76.10
2042;DHT22;1026;51.460;7.252;2023-05-24T12:38:19;15.10;76.50
2042;DHT22;1026;51.460;7.252;2023-05-24T12:40:50;15.10;76.40
2042;DHT22;1026;51.460;7.252;2023-05-24T12:43:19;15.10;76.40
2042;DHT22;1026;51.460;7.252;2023-05-24T12:45:46;15.10;76.30
2042;DHT22;1026;51.460;7.252;2023-05-24T12:48:12;15.10;76.50
2042;DHT22;1026;51.460;7.252;2023-05-24T12:50:37;15.10;76.60
2042;DHT22;1026;51.460;7.252;2023-05-24T12:53:03;15.10;76.70
2042;DHT22;1026;51.460;7.252;2023-05-24T12:55:29;15.10;76.80
2042;DHT22;1026;51.460;7.252;2023-05-24T12:57:55;15.10;76.80
2042;DHT22;1026;51.460;7.252;2023-05-24T13:00:24;15.10;77.00
2042;DHT22;1026;51.460;7.252;2023-05-24T13:02:52;15.20;76.90
2042;DHT22;1026;51.460;7.252;2023-05-24T13:05:20;15.20;76.90
2042;DHT22;1026;51.460;7.252;2023-05-24T13:07:47;15.10;76.90
2042;DHT22;1026;51.460;7.252;2023-05-24T13:10:13;15.20;76.90
2042;DHT22;1026;51.460;7.252;2023-05-24T13:12:38;15.20;76.80
2042;DHT22;1026;51.460;7.252;2023-05-24T13:15:06;15.20;76.90
2042;DHT22;1026;51.460;7.252;2023-05-24T13:17:33;15.30;76.90
2042;DHT22;1026;51.460;7.252;2023-05-24T13:20:02;15.30;76.90
2042;DHT22;1026;51.460;7.252;2023-05-24T13:22:30;15.30;76.80
2042;DHT22;1026;51.460;7.252;2023-05-24T13:24:56;15.30;77.00
2042;DHT22;1026;51.460;7.252;2023-05-24T13:27:29;15.30;76.80
2042;DHT22;1026;51.460;7.252;2023-05-24T13:29:55;15.30;76.90
2042;DHT22;1026;51.460;7.252;2023-05-24T13:32:21;15.30;76.80
2042;DHT22;1026;51.460;7.252;2023-05-24T13:34:47;15.40;76.90
2042;DHT22;1026;51.460;7.252;2023-05-24T13:37:13;15.40;76.80
2042;DHT22;1026;51.460;7.252;2023-05-24T13:39:41;15.40;76.80
2042;DHT22;1026;51.460;7.252;2023-05-24T13:42:07;15.40;76.90
2042;DHT22;1026;51.460;7.252;2023-05-24T13:44:33;15.30;76.70
2042;DHT22;1026;51.460;7.252;2023-05-24T13:46:59;15.30;76.80
2042;DHT22;1026;51.460;7.252;2023-05-24T13:49:25;15.40;76.90
2042;DHT22;1026;51.460;7.252;2023-05-24T13:51:51;15.40;76.90
2042;DHT22;1026;51.460;7.252;2023-05-24T13:54:17;15.40;76.90
2042;DHT22;1026;51.460;7.252;2023-05-24T13:56:46;15.40;77.00
2042;DHT22;1026;51.460;7.252;2023-05-24T13:59:18;15.40;77.00
2042;DHT22;1026;51.460;7.252;2023-05-24T14:01:44;15.50;77.10
2042;DHT22;1026;51.460;7.252;2023-05-24T14:04:13;15.50;77.10
2042;DHT22;1026;51.460;7.252;2023-05-24T14:06:38;15.50;77.10
2042;DHT22;1026;51.460;7.252;2023-05-24T14:09:05;15.50;77.10
2042;DHT22;1026;51.460;7.252;2023-05-24T14:12:03;15.50;77.10
2042;DHT22;1026;51.460;7.252;2023-05-24T14:14:29;15.50;77.10
2042;DHT22;1026;51.460;7.252;2023-05-24T14:16:55;15.50;77.20
2042;DHT22;1026;51.460;7.252;2023-05-24T14:19:20;15.50;77.10
2042;DHT22;1026;51.460;7.252;2023-05-24T14:22:00;15.60;77.20
2042;DHT22;1026;51.460;7.252;2023-05-24T14:24:25;15.60;77.40
2042;DHT22;1026;51.460;7.252;2023-05-24T14:26:51;15.60;77.30
2042;DHT22;1026;51.460;7.252;2023-05-24T14:29:17;15.60;77.40
2042;DHT22;1026;51.460;7.252;2023-05-24T14:31:43;15.60;77.30
2042;DHT22;1026;51.460;7.252;2023-05-24T14:34:09;15.60;77.40
2042;DHT22;1026;51.460;7.252;2023-05-24T14:36:38;15.60;77.40
2042;DHT22;1026;51.460;7.252;2023-05-24T14:39:05;15.60;77.30
2042;DHT22;1026;51.460;7.252;2023-05-24T14:41:32;15.60;77.30
2042;DHT22;1026;51.460;7.252;2023-05-24T14:43:58;15.60;77.40
2042;DHT22;1026;51.460;7.252;2023-05-24T14:46:23;15.60;77.40
2042;DHT22;1026;51.460;7.252;2023-05-24T14:48:56;15.60;77.40
2042;DHT22;1026;51.460;7.252;2023-05-24T14:51:21;15.70;77.60
2042;DHT22;1026;51.460;7.252;2023-05-24T14:53:47;15.70;77.60
2042;DHT22;1026;51.460;7.252;2023-05-24T14:56:13;15.70;77.60
2042;DHT22;1026;51.460;7.252;2023-05-24T14:58:40;15.70;77.60
2042;DHT22;1026;51.460;7.252;2023-05-24T15:01:06;15.70;77.60
2042;DHT22;1026;51.460;7.252;2023-05-24T15:03:33;15.80;78.50
2042;DHT22;1026;51.460;7.252;2023-05-24T15:05:59;15.80;77.70
2042;DHT22;1026;51.460;7.252;2023-05-24T15:08:24;15.80;77.70
2042;DHT22;1026;51.460;7.252;2023-05-24T15:10:53;15.80;77.80
2042;DHT22;1026;51.460;7.252;2023-05-24T15:13:19;15.70;77.60
2042;DHT22;1026;51.460;7.252;2023-05-24T15:15:44;15.80;77.90
2042;DHT22;1026;51.460;7.252;2023-05-24T15:18:10;15.80;77.70
2042;DHT22;1026;51.460;7.252;2023-05-24T15:20:36;15.80;77.80
2042;DHT22;1026;51.460;7.252;2023-05-24T15:23:02;15.80;77.80
2042;DHT22;1026;51.460;7.252;2023-05-24T15:25:28;15.70;77.80
2042;DHT22;1026;51.460;7.252;2023-05-24T15:27:53;15.80;78.00
2042;DHT22;1026;51.460;7.252;2023-05-24T15:30:19;15.80;77.90
2042;DHT22;1026;51.460;7.252;2023-05-24T15:32:45;15.80;77.90
2042;DHT22;1026;51.460;7.252;2023-05-24T15:35:11;15.90;78.00
2042;DHT22;1026;51.460;7.252;2023-05-24T15:37:38;15.90;78.00
2042;DHT22;1026;51.460;7.252;2023-05-24T15:40:05;15.90;77.90
2042;DHT22;1026;51.460;7.252;2023-05-24T15:42:32;15.90;77.90
2042;DHT22;1026;51.460;7.252;2023-05-24T15:44:57;16.00;77.90
2042;DHT22;1026;51.460;7.252;2023-05-24T15:47:23;15.90;77.90
2042;DHT22;1026;51.460;7.252;2023-05-24T15:49:53;16.00;78.00
2042;DHT22;1026;51.460;7.252;2023-05-24T15:52:19;16.00;78.00
2042;DHT22;1026;51.460;7.252;2023-05-24T15:54:45;16.00;77.90
2042;DHT22;1026;51.460;7.252;2023-05-24T15:57:11;16.00;78.00
2042;DHT22;1026;51.460;7.252;2023-05-24T15:59:46;16.00;77.90
2042;DHT22;1026;51.460;7.252;2023-05-24T16:02:12;16.00;78.00
2042;DHT22;1026;51.460;7.252;2023-05-24T16:04:38;16.00;78.10
2042;DHT22;1026;51.460;7.252;2023-05-24T16:07:03;16.00;78.10
2042;DHT22;1026;51.460;7.252;2023-05-24T16:09:29;16.00;78.10
2042;DHT22;1026;51.460;7.252;2023-05-24T16:11:55;16.00;78.10
2042;DHT22;1026;51.460;7.252;2023-05-24T16:14:21;16.10;78.30
2042;DHT22;1026;51.460;7.252;2023-05-24T16:16:46;16.10;78.40
2042;DHT22;1026;51.460;7.252;2023-05-24T16:19:12;16.10;78.40
2042;DHT22;1026;51.460;7.252;2023-05-24T16:21:38;16.10;78.30
2042;DHT22;1026;51.460;7.252;2023-05-24T16:24:04;16.10;78.30
2042;DHT22;1026;51.460;7.252;2023-05-24T16:26:31;16.10;78.40
2042;DHT22;1026;51.460;7.252;2023-05-24T16:28:57;16.10;78.40
2042;DHT22;1026;51.460;7.252;2023-05-24T16:31:23;16.10;78.50
2042;DHT22;1026;51.460;7.252;2023-05-24T16:33:49;16.10;78.30
2042;DHT22;1026;51.460;7.252;2023-05-24T16:36:15;16.10;78.30
2042;DHT22;1026;51.460;7.252;2023-05-24T16:38:41;16.10;78.30
2042;DHT22;1026;51.460;7.252;2023-05-24T16:41:07;16.20;78.30
2042;DHT22;1026;51.460;7.252;2023-05-24T16:43:33;16.20;78.40
2042;DHT22;1026;51.460;7.252;2023-05-24T16:45:59;16.20;78.50
2042;DHT22;1026;51.460;7.252;2023-05-24T16:48:26;16.20;78.40
2042;DHT22;1026;51.460;7.252;2023-05-24T16:50:53;16.20;78.40
2042;DHT22;1026;51.460;7.252;2023-05-24T16:53:22;16.20;78.40
2042;DHT22;1026;51.460;7.252;2023-05-24T16:55:50;16.20;78.40
2042;DHT22;1026;51.460;7.252;2023-05-24T16:58:20;16.20;78.40
2042;DHT22;1026;51.460;7.252;2023-05-24T17:00:46;16.10;78.40
2042;DHT22;1026;51.460;7.252;2023-05-24T17:03:15;16.20;78.40
2042;DHT22;1026;51.460;7.252;2023-05-24T17:05:41;16.20;78.40
2042;DHT22;1026;51.460;7.252;2023-05-24T17:08:06;16.20;78.50
2042;DHT22;1026;51.460;7.252;2023-05-24T17:10:33;16.20;78.50
2042;DHT22;1026;51.460;7.252;2023-05-24T17:12:58;16.20;78.50
2042;DHT22;1026;51.460;7.252;2023-05-24T17:15:24;16.20;78.50
2042;DHT22;1026;51.460;7.252;2023-05-24T17:17:50;16.20;78.50
2042;DHT22;1026;51.460;7.252;2023-05-24T17:20:16;16.20;78.60
2042;DHT22;1026;51.460;7.252;2023-05-24T17:22:42;16.20;78.60
2042;DHT22;1026;51.460;7.252;2023-05-24T17:25:08;16.20;78.60
2042;DHT22;1026;51.460;7.252;2023-05-24T17:27:35;16.20;78.70
2042;DHT22;1026;51.460;7.252;2023-05-24T17:30:00;16.20;78.60
2042;DHT22;1026;51.460;7.252;2023-05-24T17:32:26;16.30;78.80
2042;DHT22;1026;51.460;7.252;2023-05-24T17:34:52;16.30;78.80
2042;DHT22;1026;51.460;7.252;2023-05-24T17:37:18;16.30;78.90